KPSP/PSP METAR and TAF weather

Enter ICAO airport designator
Station Type Date Time Source
KPSP METAR 2019/07/20 04:53 UTC NOAA

KPSP 200453Z 32012KT 10SM CLR 33/04 A2974 RMK AO2 SLP067 T03280044


Station Type Date Time Source
KPSP Decoded METAR 2019/07/20 04:53 UTC NOAA

PALM SPRINGS REGIONAL AIRPORT , CA, United States (KPSP) 33-50N 116-30W 135M
Jul 20, 2019 - 12:53 AM EDT / 2019.07.20 0453 UTC
Wind: from the NW (320 degrees) at 14 MPH (12 KT):0
Visibility: 10 mile(s):0
Sky conditions: clear
Temperature: 91.0 F (32.8 C)
Dew Point: 39.9 F (4.4 C)
Relative Humidity: 16%
Pressure (altimeter): 29.74 in. Hg (1007 hPa)
ob: KPSP 200453Z 32012KT 10SM CLR 33/04 A2974 RMK AO2 SLP067 T03280044
cycle: 5

Station Type Date Time Source
KPSP TAF 2019/07/19 18:30 UTC NOAA

TAF KPSP 191727Z 1918/2018 VRB04KT P6SM SKC
FM192100 33015G26KT P6SM SKC
FM200700 VRB05KT P6SM SKC

Example: see airport list